createdAt,value
2023-04-28T00:07:10.055Z,1.77
2023-04-28T00:17:15.026Z,3.40
2023-04-28T00:27:18.991Z,2.33
2023-04-28T00:37:23.945Z,1.07
2023-04-28T00:47:27.783Z,4.17
2023-04-28T00:57:32.964Z,2.00
2023-04-28T01:07:37.174Z,3.63
2023-04-28T01:17:42.122Z,1.80
2023-04-28T01:27:47.161Z,2.13
2023-04-28T01:37:50.887Z,5.10
2023-04-28T01:47:55.923Z,2.43
2023-04-28T01:57:59.552Z,1.47
2023-04-28T02:08:04.700Z,1.90
2023-04-28T02:18:08.402Z,1.87
2023-04-28T02:28:14.069Z,1.30
2023-04-28T02:38:20.029Z,1.33
2023-04-28T02:48:25.538Z,1.00
2023-04-28T02:58:29.156Z,1.60
2023-04-28T03:08:34.107Z,2.37
2023-04-28T03:18:37.736Z,2.87
2023-04-28T03:28:42.685Z,2.03
2023-04-28T03:38:46.286Z,1.13
2023-04-28T03:48:51.219Z,7.13
2023-04-28T03:58:54.896Z,2.17
2023-04-28T04:09:00.456Z,2.60
2023-04-28T04:19:04.316Z,2.47
2023-04-28T04:29:18.819Z,3.40
2023-04-28T04:39:22.499Z,2.23
2023-04-28T04:49:27.654Z,2.17
2023-04-28T04:59:31.314Z,3.03
2023-04-28T05:09:36.578Z,2.50
2023-04-28T05:19:40.259Z,2.33
2023-04-28T05:29:45.293Z,2.93
2023-04-28T05:39:48.964Z,3.23
2023-04-28T05:49:53.894Z,2.63
2023-04-28T05:59:57.655Z,2.30
2023-04-28T06:10:02.687Z,2.47
2023-04-28T06:20:08.399Z,1.50
2023-04-28T06:30:20.138Z,2.80
2023-04-28T06:40:23.952Z,3.13
2023-04-28T06:50:28.966Z,3.93
2023-04-28T07:00:32.709Z,2.17
2023-04-28T07:10:37.688Z,2.07
2023-04-28T07:20:41.569Z,3.47
2023-04-28T07:30:46.693Z,4.13
2023-04-28T07:51:00.350Z,6.10
2023-04-28T08:01:04.505Z,3.87
2023-04-28T08:11:09.461Z,2.57
2023-04-28T08:21:13.157Z,2.93
2023-04-28T08:31:18.485Z,4.33
2023-04-28T08:41:22.486Z,2.80
2023-04-28T08:51:34.387Z,4.37
2023-04-28T09:01:38.854Z,5.13
2023-04-28T09:11:55.480Z,3.87
2023-04-28T09:22:00.884Z,6.97
2023-04-28T09:32:19.007Z,4.27
2023-04-28T09:42:34.566Z,5.17
2023-04-28T09:52:40.122Z,4.77
2023-04-28T10:02:46.479Z,6.83
2023-04-28T10:12:52.736Z,6.95
2023-04-28T10:23:12.128Z,9.15
2023-04-28T10:33:27.356Z,7.85
2023-04-28T10:43:37.780Z,5.10
2023-04-28T11:04:22.369Z,6.38
2023-04-28T11:14:33.352Z,7.03
2023-04-28T11:24:38.766Z,5.43
2023-04-28T11:34:42.585Z,6.10
2023-04-28T11:44:53.590Z,7.72
2023-04-28T11:55:00.182Z,7.60
2023-04-28T12:05:10.732Z,6.75
2023-04-28T12:15:14.447Z,4.82
2023-04-28T12:25:20.542Z,5.53
2023-04-28T12:35:25.386Z,3.03
2023-04-28T12:45:31.193Z,6.05
2023-04-28T12:55:35.057Z,3.38
2023-04-28T13:05:40.169Z,3.80
2023-04-28T13:15:43.842Z,2.38
2023-04-28T13:25:48.778Z,2.70
2023-04-28T13:35:52.466Z,2.08
2023-04-28T13:45:57.609Z,2.83
2023-04-28T13:56:01.764Z,1.90
2023-04-28T14:06:08.680Z,2.58
2023-04-28T14:16:13.188Z,2.42
2023-04-28T14:26:18.684Z,2.20
2023-04-28T14:36:22.294Z,2.35
2023-04-28T14:46:27.598Z,1.77
2023-04-28T14:56:33.381Z,2.35
2023-04-28T15:06:39.009Z,1.73
2023-04-28T15:16:42.690Z,1.25
2023-04-28T15:26:47.776Z,1.38
2023-04-28T15:36:53.667Z,1.10
2023-04-28T15:46:58.795Z,1.52
2023-04-28T15:57:03.422Z,0.50
2023-04-28T16:07:08.543Z,0.95
2023-04-28T16:17:12.798Z,0.40
2023-04-28T16:27:18.056Z,0.80
2023-04-28T16:37:21.712Z,1.95
2023-04-28T16:47:27.050Z,1.52
2023-04-28T16:57:30.725Z,1.10
2023-04-28T17:07:36.567Z,0.70
2023-04-28T17:17:40.556Z,0.98
2023-04-28T17:27:47.129Z,1.38
2023-04-28T17:37:50.922Z,0.68
2023-04-28T17:47:57.814Z,1.42
2023-04-28T17:58:01.702Z,1.55
2023-04-28T18:08:07.632Z,2.05
2023-04-28T18:18:11.628Z,0.80
2023-04-28T18:28:16.646Z,0.73
2023-04-28T18:38:20.425Z,0.93
2023-04-28T18:48:25.710Z,1.52
2023-04-28T18:58:29.927Z,0.88
2023-04-28T19:08:38.742Z,0.93
2023-04-28T19:18:42.735Z,1.70
2023-04-28T19:28:47.850Z,1.13
2023-04-28T19:38:51.866Z,1.60
2023-04-28T19:48:56.816Z,5.57
2023-04-28T19:59:00.522Z,1.73
2023-04-28T20:09:06.425Z,2.03
2023-04-28T20:19:10.808Z,0.67
2023-04-28T20:29:16.254Z,1.23
2023-04-28T20:39:20.951Z,3.40
2023-04-28T20:49:29.325Z,2.13
2023-04-28T20:59:33.479Z,1.57
2023-04-28T21:09:38.685Z,2.60
2023-04-28T21:19:42.541Z,3.33
2023-04-28T21:29:50.362Z,1.90
2023-04-28T21:39:54.165Z,2.43
2023-04-28T21:49:59.214Z,6.10
2023-04-28T22:00:05.090Z,1.73
2023-04-28T22:10:13.203Z,2.63
2023-04-28T22:20:17.400Z,2.63
2023-04-28T22:30:26.287Z,2.80
2023-04-28T22:40:30.056Z,1.10
2023-04-28T22:50:41.063Z,1.57
2023-04-28T23:00:44.694Z,1.37
2023-04-28T23:10:49.926Z,0.63
2023-04-28T23:20:54.195Z,1.00
2023-04-28T23:30:59.558Z,1.27
2023-04-28T23:41:06.391Z,2.23
2023-04-28T23:51:11.448Z,2.97
